createdAt,value
2022-07-30T00:02:38.433Z,95964.06
2022-07-30T00:05:25.464Z,95966.44
2022-07-30T00:08:12.559Z,95967.00
2022-07-30T00:10:59.513Z,95977.72
2022-07-30T00:13:46.462Z,95972.28
2022-07-30T00:16:33.597Z,95969.91
2022-07-30T00:19:20.803Z,95974.19
2022-07-30T00:22:09.608Z,95969.91
2022-07-30T00:24:56.593Z,95964.63
2022-07-30T00:27:44.422Z,95964.63
2022-07-30T00:30:31.474Z,95961.44
2022-07-30T00:33:18.471Z,95963.31
2022-07-30T00:36:05.695Z,95956.03
2022-07-30T00:38:52.755Z,95981.00
2022-07-30T00:42:03.430Z,95968.22
2022-07-30T00:44:50.469Z,95961.00
2022-07-30T00:47:38.094Z,95962.97
2022-07-30T00:50:25.065Z,95969.13
2022-07-30T00:53:12.087Z,95972.06
2022-07-30T00:55:59.108Z,95965.28
2022-07-30T00:58:46.056Z,95965.41
2022-07-30T01:01:33.730Z,95968.97
2022-07-30T01:04:21.409Z,95963.31
2022-07-30T01:07:08.374Z,95963.06
2022-07-30T01:09:55.339Z,95963.91
2022-07-30T01:12:43.086Z,95957.81
2022-07-30T01:15:30.204Z,95949.31
2022-07-30T01:18:18.162Z,95957.22
2022-07-30T01:21:09.486Z,95960.97
2022-07-30T01:24:03.692Z,95963.13
2022-07-30T01:26:51.827Z,95966.50
2022-07-30T01:29:43.360Z,95968.00
2022-07-30T01:32:31.641Z,95977.03
2022-07-30T01:35:21.875Z,95968.00
2022-07-30T01:38:11.445Z,95969.19
2022-07-30T01:40:59.352Z,95963.44
2022-07-30T01:43:47.637Z,95968.84
2022-07-30T01:46:35.184Z,95976.34
2022-07-30T01:49:24.108Z,95973.19
2022-07-30T01:52:12.384Z,95972.28
2022-07-30T01:55:02.248Z,95967.13
2022-07-30T01:57:50.287Z,95966.41
2022-07-30T02:00:40.188Z,95968.31
2022-07-30T02:03:27.766Z,95963.66
2022-07-30T02:06:21.297Z,95970.78
2022-07-30T02:09:11.046Z,95966.09
2022-07-30T02:12:18.939Z,95958.19
2022-07-30T02:15:17.455Z,95972.91
2022-07-30T02:18:16.915Z,95964.75
2022-07-30T02:21:07.531Z,95969.44
2022-07-30T02:23:56.489Z,95971.53
2022-07-30T02:26:46.391Z,95971.69
2022-07-30T02:29:35.706Z,95969.72
2022-07-30T02:32:24.709Z,95967.59
2022-07-30T02:35:20.130Z,95975.47
2022-07-30T02:38:09.275Z,95975.09
2022-07-30T02:40:59.300Z,95976.03
2022-07-30T02:43:48.282Z,95975.41
2022-07-30T02:46:37.956Z,95980.16
2022-07-30T02:49:27.870Z,95971.84
2022-07-30T02:52:16.527Z,95968.72
2022-07-30T02:55:05.230Z,95972.06
2022-07-30T02:57:54.033Z,95971.22
2022-07-30T03:00:42.808Z,95964.53
2022-07-30T03:03:30.859Z,95973.66
2022-07-30T03:06:20.004Z,95975.59
2022-07-30T03:09:07.926Z,95972.97
2022-07-30T03:11:56.220Z,95971.22
2022-07-30T03:14:43.481Z,95970.38
2022-07-30T03:17:38.228Z,95969.25
2022-07-30T03:20:29.737Z,95967.91
2022-07-30T03:23:19.475Z,95972.66
2022-07-30T03:26:08.745Z,95974.53
2022-07-30T03:28:57.169Z,95983.97
2022-07-30T03:31:45.086Z,95987.13
2022-07-30T03:34:35.007Z,95985.34
2022-07-30T03:37:22.275Z,95993.19
2022-07-30T03:40:09.941Z,95989.28
2022-07-30T03:42:57.341Z,95993.72
2022-07-30T03:45:45.577Z,95986.41
2022-07-30T03:48:34.923Z,95987.50
2022-07-30T03:51:22.271Z,95988.25
2022-07-30T03:54:13.766Z,95994.13
2022-07-30T03:57:03.027Z,95992.22
2022-07-30T03:59:51.843Z,96005.25
2022-07-30T04:02:46.423Z,96001.69
2022-07-30T04:05:41.342Z,96013.66
2022-07-30T04:08:29.125Z,96010.19
2022-07-30T04:11:16.187Z,96011.59
2022-07-30T04:14:03.452Z,96015.56
2022-07-30T04:16:59.474Z,96017.22
2022-07-30T04:20:01.866Z,96021.38
2022-07-30T04:22:50.250Z,96019.69
2022-07-30T04:25:37.839Z,96024.38
2022-07-30T04:28:27.042Z,96027.28
2022-07-30T04:31:14.527Z,96027.44
2022-07-30T04:34:04.617Z,96035.50
2022-07-30T04:36:51.972Z,96037.69
2022-07-30T04:39:38.954Z,96046.03
2022-07-30T04:42:28.017Z,96038.53
2022-07-30T04:45:15.166Z,96047.88
2022-07-30T04:48:02.147Z,96053.56
2022-07-30T04:50:51.435Z,96051.19
2022-07-30T04:53:40.317Z,96054.16
2022-07-30T04:56:30.730Z,96056.25
2022-07-30T04:59:18.865Z,96059.66
2022-07-30T05:02:08.698Z,96070.91
2022-07-30T05:04:57.689Z,96066.41
2022-07-30T05:07:47.190Z,96073.56
2022-07-30T05:10:34.428Z,96075.22
2022-07-30T05:13:22.316Z,96077.66
2022-07-30T05:16:09.873Z,96079.19
2022-07-30T05:18:56.914Z,96081.22
2022-07-30T05:21:44.338Z,96075.97
2022-07-30T05:24:31.366Z,96076.53
2022-07-30T05:27:20.387Z,96073.78
2022-07-30T05:30:08.315Z,96070.94
2022-07-30T05:32:56.049Z,96058.94
2022-07-30T05:35:43.261Z,96066.47
2022-07-30T05:38:30.216Z,96065.09
2022-07-30T05:41:24.557Z,96060.44
2022-07-30T05:44:22.263Z,96074.00
2022-07-30T05:47:10.997Z,96085.63
2022-07-30T05:50:01.586Z,96079.47
2022-07-30T05:52:51.659Z,96075.63
2022-07-30T05:55:38.709Z,96073.44
2022-07-30T05:58:25.661Z,96094.06
2022-07-30T06:01:12.860Z,96093.88
2022-07-30T06:03:59.934Z,96084.03
2022-07-30T06:06:47.125Z,96101.53
2022-07-30T06:09:37.104Z,96095.66
2022-07-30T06:12:24.355Z,96102.31
2022-07-30T06:15:11.619Z,96094.59
2022-07-30T06:18:01.556Z,96104.00
2022-07-30T06:20:51.825Z,96109.34
2022-07-30T06:23:39.237Z,96119.22
2022-07-30T06:26:26.257Z,96105.31
2022-07-30T06:29:13.538Z,96105.25
2022-07-30T06:32:00.730Z,96104.47
2022-07-30T06:34:47.713Z,96103.03
2022-07-30T06:38:04.900Z,96104.16
2022-07-30T06:40:41.861Z,96090.44
2022-07-30T06:43:28.931Z,96095.50
2022-07-30T06:46:16.028Z,96092.78
2022-07-30T06:49:03.857Z,96095.44
2022-07-30T06:51:51.438Z,96089.72
2022-07-30T06:54:38.545Z,96103.56
2022-07-30T06:57:25.708Z,96098.50
2022-07-30T07:00:13.119Z,96097.59
2022-07-30T07:03:00.179Z,96109.81
2022-07-30T07:05:47.347Z,96101.63
2022-07-30T07:08:38.920Z,96102.16
2022-07-30T07:11:26.064Z,96089.84
2022-07-30T07:14:13.087Z,96089.94
2022-07-30T07:17:00.339Z,96093.84
2022-07-30T07:20:01.632Z,96093.69
2022-07-30T07:22:49.606Z,96088.56
2022-07-30T07:25:36.841Z,96094.69
2022-07-30T07:28:33.312Z,96087.97
2022-07-30T07:32:05.618Z,96096.44
2022-07-30T07:34:28.128Z,96096.47
2022-07-30T07:37:16.093Z,96089.53
2022-07-30T07:40:04.178Z,96087.59
2022-07-30T07:42:51.264Z,96090.91
2022-07-30T07:45:39.298Z,96087.69
2022-07-30T07:48:26.371Z,96088.75
2022-07-30T07:51:13.347Z,96091.56
2022-07-30T07:54:20.492Z,96076.44
2022-07-30T07:57:10.380Z,96095.22
2022-07-30T07:59:58.846Z,96091.75
2022-07-30T08:02:46.772Z,96085.59
2022-07-30T08:05:58.192Z,96095.75
2022-07-30T08:08:41.239Z,96082.34
2022-07-30T08:11:28.927Z,96087.88
2022-07-30T08:14:15.941Z,96086.13
2022-07-30T08:17:03.210Z,96101.19
2022-07-30T08:19:51.047Z,96090.00
2022-07-30T08:22:38.097Z,96089.59
2022-07-30T08:25:25.542Z,96091.38
2022-07-30T08:28:35.215Z,96085.41
2022-07-30T08:31:19.742Z,96095.25
2022-07-30T08:34:06.969Z,96097.75
2022-07-30T08:36:54.068Z,96101.22
2022-07-30T08:39:41.355Z,96102.53
2022-07-30T08:42:29.290Z,96095.03
2022-07-30T08:45:17.566Z,96100.72
2022-07-30T08:48:13.675Z,96089.44
2022-07-30T08:51:03.672Z,96103.91
2022-07-30T08:53:51.318Z,96093.16
2022-07-30T08:56:38.586Z,96105.78
2022-07-30T08:59:59.410Z,96095.00
2022-07-30T09:02:34.866Z,96099.88
2022-07-30T09:05:22.014Z,96099.03
2022-07-30T09:08:09.143Z,96089.91
2022-07-30T09:10:56.410Z,96090.28
2022-07-30T09:13:44.870Z,96109.03
2022-07-30T09:16:32.128Z,96105.81
2022-07-30T09:19:21.833Z,96100.03
2022-07-30T09:22:08.795Z,96100.13
2022-07-30T09:24:55.773Z,96127.09
2022-07-30T09:27:50.289Z,96100.38
2022-07-30T09:30:46.430Z,96081.91
2022-07-30T09:33:36.570Z,96084.06
2022-07-30T09:36:23.831Z,96091.75
2022-07-30T09:39:11.142Z,96098.84
2022-07-30T09:41:58.770Z,96087.53
2022-07-30T09:44:46.946Z,96083.09
2022-07-30T09:47:38.982Z,96074.22
2022-07-30T09:50:30.468Z,96074.22
2022-07-30T09:53:18.186Z,96064.97
2022-07-30T09:56:31.572Z,96069.41
2022-07-30T09:59:34.973Z,96071.25
2022-07-30T10:02:31.960Z,96074.41
2022-07-30T10:05:20.693Z,96068.06
2022-07-30T10:08:16.730Z,96062.91
2022-07-30T10:11:09.570Z,96062.72
2022-07-30T10:13:59.304Z,96069.19
2022-07-30T10:16:47.568Z,96063.09
2022-07-30T10:19:40.034Z,96064.47
2022-07-30T10:22:29.404Z,96068.94
2022-07-30T10:25:23.080Z,96062.91
2022-07-30T10:28:16.517Z,96053.81
2022-07-30T10:31:08.290Z,96064.78
2022-07-30T10:34:13.850Z,96064.47
2022-07-30T10:37:04.734Z,96075.13
2022-07-30T10:39:59.214Z,96080.44
2022-07-30T10:42:54.833Z,96091.09
2022-07-30T10:45:58.393Z,96089.41
2022-07-30T10:48:48.220Z,96093.78
2022-07-30T10:51:43.834Z,96097.56
2022-07-30T10:54:33.652Z,96083.53
2022-07-30T10:57:32.096Z,96069.63
2022-07-30T11:00:20.051Z,96086.34
2022-07-30T11:03:14.838Z,96065.78
2022-07-30T11:06:24.585Z,96075.84
2022-07-30T11:09:41.086Z,96080.88
2022-07-30T11:12:47.405Z,96068.53
2022-07-30T11:15:59.921Z,96066.78
2022-07-30T11:19:56.542Z,96071.50
2022-07-30T11:22:41.362Z,96086.66
2022-07-30T11:25:50.051Z,96078.06
2022-07-30T11:28:37.782Z,96079.84
2022-07-30T11:31:36.983Z,96078.94
2022-07-30T11:34:33.449Z,96067.28
2022-07-30T11:37:22.179Z,96057.97
2022-07-30T11:40:26.177Z,96060.94
2022-07-30T11:43:36.295Z,96067.06
2022-07-30T11:46:29.272Z,96077.19
2022-07-30T11:49:17.044Z,96077.16
2022-07-30T11:52:04.563Z,96081.94
2022-07-30T11:54:55.715Z,96061.66
2022-07-30T11:57:42.949Z,96061.50
2022-07-30T12:00:39.040Z,96064.00
2022-07-30T12:03:31.849Z,96071.03
2022-07-30T12:06:19.979Z,96065.28
2022-07-30T12:09:07.088Z,96062.41
2022-07-30T12:11:57.781Z,96066.53
2022-07-30T12:14:44.879Z,96066.69
2022-07-30T12:17:44.986Z,96040.91
2022-07-30T12:20:32.034Z,96050.69
2022-07-30T12:23:21.867Z,96064.09
2022-07-30T12:26:20.508Z,96073.06
2022-07-30T12:29:11.716Z,96059.94
2022-07-30T12:31:58.938Z,96048.34
2022-07-30T12:34:55.981Z,96054.31
2022-07-30T12:38:02.556Z,96054.72
2022-07-30T12:40:58.534Z,96063.66
2022-07-30T12:43:49.782Z,96059.28
2022-07-30T12:46:41.628Z,96045.94
2022-07-30T12:49:39.406Z,96048.38
2022-07-30T12:52:35.968Z,96026.56
2022-07-30T12:55:34.369Z,96039.09
2022-07-30T12:58:21.353Z,96043.03
2022-07-30T13:01:09.973Z,96043.22
2022-07-30T13:04:05.523Z,96029.13
2022-07-30T13:07:04.841Z,96016.63
2022-07-30T13:10:10.201Z,96028.13
2022-07-30T13:12:58.296Z,96022.66
2022-07-30T13:15:56.358Z,96008.66
2022-07-30T13:18:43.643Z,96000.75
2022-07-30T13:21:30.751Z,96001.19
2022-07-30T13:24:18.726Z,96004.94
2022-07-30T13:27:06.063Z,95999.41
2022-07-30T13:29:53.396Z,95993.25
2022-07-30T13:32:40.455Z,95995.69
2022-07-30T13:35:27.893Z,95993.78
2022-07-30T13:38:15.709Z,95992.50
2022-07-30T13:41:04.481Z,95989.88
2022-07-30T13:43:51.489Z,95990.41
2022-07-30T13:46:41.198Z,95988.09
2022-07-30T13:49:28.573Z,95987.44
2022-07-30T13:52:17.213Z,95989.22
2022-07-30T13:55:04.467Z,95993.09
2022-07-30T13:57:51.403Z,95995.72
2022-07-30T14:00:38.984Z,95991.78
2022-07-30T14:03:25.902Z,95976.25
2022-07-30T14:06:12.971Z,95969.16
2022-07-30T14:08:59.905Z,95965.47
2022-07-30T14:11:46.917Z,95977.09
2022-07-30T14:14:33.877Z,95960.34
2022-07-30T14:17:20.808Z,95957.81
2022-07-30T14:20:08.307Z,95956.00
2022-07-30T14:22:55.420Z,95953.94
2022-07-30T14:25:44.210Z,95955.50
2022-07-30T14:28:31.176Z,95953.66
2022-07-30T14:31:18.307Z,95949.53
2022-07-30T14:34:05.489Z,95947.50
2022-07-30T14:36:52.885Z,95951.19
2022-07-30T14:39:40.032Z,95960.84
2022-07-30T14:42:27.553Z,95954.63
2022-07-30T14:45:14.674Z,95961.56
2022-07-30T14:48:01.852Z,95941.91
2022-07-30T14:51:12.360Z,95944.56
2022-07-30T14:53:57.076Z,95938.59
2022-07-30T14:56:44.150Z,95940.06
2022-07-30T14:59:31.174Z,95940.22
2022-07-30T15:02:18.273Z,95933.91
2022-07-30T15:05:05.776Z,95936.72
2022-07-30T15:07:52.718Z,95926.50
2022-07-30T15:10:40.188Z,95931.72
2022-07-30T15:13:29.302Z,95933.84
2022-07-30T15:16:19.298Z,95942.22
2022-07-30T15:19:06.221Z,95940.16
2022-07-30T15:21:53.155Z,95943.34
2022-07-30T15:24:40.201Z,95949.72
2022-07-30T15:27:33.705Z,95952.91
2022-07-30T15:30:21.607Z,95943.94
2022-07-30T15:33:08.940Z,95949.63
2022-07-30T15:35:56.184Z,95956.00
2022-07-30T15:38:43.647Z,95952.47
2022-07-30T15:41:33.882Z,95950.59
2022-07-30T15:44:21.087Z,95958.91
2022-07-30T15:47:11.511Z,95961.78
2022-07-30T15:50:00.232Z,95952.06
2022-07-30T15:52:47.389Z,95958.41
2022-07-30T15:55:47.186Z,95956.13
2022-07-30T15:58:36.156Z,95955.53
2022-07-30T16:01:24.598Z,95952.59
2022-07-30T16:04:19.400Z,95950.34
2022-07-30T16:07:08.044Z,95961.25
2022-07-30T16:09:55.080Z,95952.56
2022-07-30T16:12:42.388Z,95946.88
2022-07-30T16:15:29.649Z,95951.94
2022-07-30T16:18:16.800Z,95936.41
2022-07-30T16:21:04.001Z,95943.47
2022-07-30T16:23:52.612Z,95934.09
2022-07-30T16:26:39.780Z,95933.09
2022-07-30T16:29:27.099Z,95940.03
2022-07-30T16:32:14.480Z,95938.25
2022-07-30T16:35:01.776Z,95944.69
2022-07-30T16:37:48.869Z,95932.59
2022-07-30T16:40:36.407Z,95938.16
2022-07-30T16:43:23.438Z,95941.31
2022-07-30T16:46:11.133Z,95938.94
2022-07-30T16:48:58.355Z,95938.88
2022-07-30T16:51:45.467Z,95941.25
2022-07-30T16:54:32.768Z,95945.97
2022-07-30T16:57:19.790Z,95951.56
2022-07-30T17:00:08.602Z,95950.25
2022-07-30T17:02:55.565Z,95949.78
2022-07-30T17:05:45.277Z,95959.06
2022-07-30T17:08:33.071Z,95966.72
2022-07-30T17:11:46.168Z,95967.16
2022-07-30T17:14:27.971Z,95966.03
2022-07-30T17:17:14.930Z,95973.16
2022-07-30T17:20:04.010Z,95974.97
2022-07-30T17:22:51.034Z,95972.25
2022-07-30T17:25:38.130Z,95973.59
2022-07-30T17:28:26.810Z,95978.72
2022-07-30T17:31:14.237Z,95983.56
2022-07-30T17:34:01.159Z,95970.31
2022-07-30T17:36:51.758Z,95977.66
2022-07-30T17:40:27.526Z,95988.56
2022-07-30T17:42:46.720Z,96004.00
2022-07-30T17:45:35.676Z,95994.25
2022-07-30T17:48:22.734Z,96003.22
2022-07-30T17:51:10.141Z,96013.81
2022-07-30T17:53:57.153Z,96012.34
2022-07-30T17:56:44.868Z,96007.31
2022-07-30T17:59:32.336Z,96017.75
2022-07-30T18:02:20.095Z,96014.19
2022-07-30T18:05:15.712Z,96017.34
2022-07-30T18:08:02.719Z,96011.13
2022-07-30T18:10:50.591Z,96016.03
2022-07-30T18:13:37.634Z,96022.25
2022-07-30T18:16:25.344Z,96020.81
2022-07-30T18:19:22.807Z,96021.25
2022-07-30T18:22:14.695Z,96015.16
2022-07-30T18:25:02.299Z,96025.66
2022-07-30T18:27:56.086Z,96023.38
2022-07-30T18:30:43.179Z,96026.84
2022-07-30T18:33:30.267Z,96031.94
2022-07-30T18:36:17.321Z,96035.38
2022-07-30T18:39:04.624Z,96035.34
2022-07-30T18:41:51.681Z,96039.44
2022-07-30T18:44:38.693Z,96043.19
2022-07-30T18:47:25.951Z,96039.53
2022-07-30T18:50:15.929Z,96048.91
2022-07-30T18:53:15.364Z,96054.53
2022-07-30T18:56:03.372Z,96042.47
2022-07-30T18:58:50.992Z,96054.78
2022-07-30T19:01:39.286Z,96064.78
2022-07-30T19:04:26.879Z,96067.56
2022-07-30T19:07:14.085Z,96076.91
2022-07-30T19:10:01.584Z,96081.19
2022-07-30T19:12:48.563Z,96080.47
2022-07-30T19:15:36.177Z,96078.03
2022-07-30T19:18:23.293Z,96088.22
2022-07-30T19:21:14.070Z,96100.06
2022-07-30T19:24:01.914Z,96080.66
2022-07-30T19:26:49.306Z,96078.69
2022-07-30T19:29:37.366Z,96087.97
2022-07-30T19:32:26.221Z,96092.91
2022-07-30T19:35:13.458Z,96088.03
2022-07-30T19:38:01.787Z,96094.75
2022-07-30T19:40:50.026Z,96093.91
2022-07-30T19:43:37.745Z,96101.22
2022-07-30T19:46:26.320Z,96105.84
2022-07-30T19:49:13.428Z,96098.06
2022-07-30T19:52:10.690Z,96097.56
2022-07-30T19:55:30.509Z,96099.72
2022-07-30T19:58:17.866Z,96112.19
2022-07-30T20:01:08.515Z,96115.84
2022-07-30T20:03:55.846Z,96128.47
2022-07-30T20:06:49.187Z,96126.81
2022-07-30T20:09:36.376Z,96144.13
2022-07-30T20:12:24.492Z,96143.94
2022-07-30T20:15:14.901Z,96135.41
2022-07-30T20:18:01.983Z,96142.69
2022-07-30T20:20:50.442Z,96140.19
2022-07-30T20:23:38.106Z,96137.72
2022-07-30T20:26:29.100Z,96148.03
2022-07-30T20:29:19.264Z,96143.16
2022-07-30T20:32:08.461Z,96142.47
2022-07-30T20:34:55.631Z,96141.19
2022-07-30T20:37:54.999Z,96137.91
2022-07-30T20:40:46.745Z,96143.44
2022-07-30T20:43:33.723Z,96142.84
2022-07-30T20:46:35.107Z,96144.31
2022-07-30T20:49:33.924Z,96147.16
2022-07-30T20:52:22.320Z,96150.78
2022-07-30T20:55:12.171Z,96155.59
2022-07-30T20:58:13.786Z,96171.25
2022-07-30T21:01:04.901Z,96157.09
2022-07-30T21:03:51.913Z,96154.25
2022-07-30T21:06:44.367Z,96162.22
2022-07-30T21:09:52.286Z,96163.59
2022-07-30T21:12:39.907Z,96170.78
2022-07-30T21:15:26.974Z,96177.69
2022-07-30T21:18:19.495Z,96178.88
2022-07-30T21:21:07.887Z,96176.16
2022-07-30T21:23:59.144Z,96180.19
2022-07-30T21:26:49.045Z,96178.25
2022-07-30T21:29:36.085Z,96170.97
2022-07-30T21:32:25.604Z,96168.38
2022-07-30T21:35:12.940Z,96167.00
2022-07-30T21:38:02.396Z,96167.31
2022-07-30T21:40:49.991Z,96170.28
2022-07-30T21:43:37.002Z,96188.06
2022-07-30T21:46:26.970Z,96192.44
2022-07-30T21:49:13.968Z,96181.34
2022-07-30T21:52:01.786Z,96188.50
2022-07-30T21:54:50.499Z,96180.19
2022-07-30T21:57:37.594Z,96183.91
2022-07-30T22:01:00.970Z,96179.66
2022-07-30T22:04:08.268Z,96183.00
2022-07-30T22:06:56.151Z,96171.66
2022-07-30T22:09:47.628Z,96174.97
2022-07-30T22:12:34.621Z,96175.19
2022-07-30T22:15:21.886Z,96176.03
2022-07-30T22:18:12.627Z,96181.72
2022-07-30T22:20:59.672Z,96183.50
2022-07-30T22:23:56.707Z,96182.53
2022-07-30T22:26:51.004Z,96182.16
2022-07-30T22:29:38.761Z,96206.47
2022-07-30T22:32:25.803Z,96204.16
2022-07-30T22:38:22.935Z,96200.69
2022-07-30T22:41:14.170Z,96205.50
2022-07-30T22:44:01.281Z,96202.75
2022-07-30T22:46:48.226Z,96202.28
2022-07-30T22:49:45.684Z,96201.31
2022-07-30T22:52:52.446Z,96201.50
2022-07-30T22:55:45.972Z,96207.91
2022-07-30T22:58:32.921Z,96205.66
2022-07-30T23:01:19.872Z,96201.00
2022-07-30T23:04:09.952Z,96205.88
2022-07-30T23:06:57.034Z,96204.03
2022-07-30T23:09:51.532Z,96207.59
2022-07-30T23:12:32.860Z,96204.13
2022-07-30T23:12:39.197Z,96198.03
2022-07-30T23:15:26.461Z,96196.34
2022-07-30T23:18:15.897Z,96190.25
2022-07-30T23:21:03.205Z,96195.19
2022-07-30T23:23:50.321Z,96198.66
2022-07-30T23:26:37.280Z,96195.03
2022-07-30T23:29:24.448Z,96192.66
2022-07-30T23:32:11.478Z,96185.63
2022-07-30T23:34:58.738Z,96181.63
2022-07-30T23:37:48.010Z,96186.44
2022-07-30T23:40:35.937Z,96186.13
2022-07-30T23:43:22.851Z,96186.22
2022-07-30T23:46:11.189Z,96188.28
2022-07-30T23:48:58.669Z,96194.06
2022-07-30T23:51:45.635Z,96189.88
2022-07-30T23:54:32.628Z,96196.63
2022-07-30T23:57:19.606Z,96191.59
